Time;durP1;ratioP1;P1;durP2;ratioP2;P2;SDS_P1;SDS_P2;PMS_P1;PMS_P2;Temp;Humidity;BMP_temperature;BMP_pressure;BME280_temperature;BME280_humidity;BME280_pressure;Samples;Min_cycle;Max_cycle;Signal;HPM_P1;HPM_P2
2021/04/24 00:01:47;;;;;;;;;;;11.10;92.80;;;;;;5035166;28;19905;-58
2021/04/24 00:04:13;;;;;;;;;;;11.10;92.60;;;;;;5035427;28;19992;-56
2021/04/24 00:06:39;;;;;;;;;;;11.10;92.80;;;;;;5034579;28;20352;-54
2021/04/24 00:09:05;;;;;;;;;;;;;;;;;;5034821;28;20360;-55
2021/04/24 00:11:30;;;;;;;;;;;10.90;92.70;;;;;;5034833;28;20614;-55
2021/04/24 00:13:56;;;;;;;;;;;10.90;92.90;;;;;;5034570;28;19919;-54
2021/04/24 00:16:22;;;;;;;;;;;10.90;93.00;;;;;;5035067;28;19911;-57
2021/04/24 00:18:47;;;;;;;;;;;10.90;93.20;;;;;;5034380;28;19999;-57
2021/04/24 00:21:14;;;;;;;;;;;10.80;93.50;;;;;;5034648;28;20360;-54
2021/04/24 00:23:39;;;;;;;;;;;10.70;93.90;;;;;;5016116;28;19905;-54
2021/04/24 00:26:05;;;;;;;;;;;;;;;;;;4999753;28;19905;-57
2021/04/24 00:28:31;;;;;;;;;;;;;;;;;;5034761;28;19912;-55
2021/04/24 00:30:57;;;;;;;;;;;9.20;96.40;;;;;;5034314;28;19917;-53
2021/04/24 00:33:24;;;;;;;;;;;8.30;99.50;;;;;;5034646;28;19905;-57
2021/04/24 00:35:50;;;;;;;;;;;8.00;99.90;;;;;;5034378;28;19905;-56
2021/04/24 00:38:16;;;;;;;;;;;7.90;99.90;;;;;;5034450;28;19921;-56
2021/04/24 00:40:41;;;;;;;;;;;7.80;99.90;;;;;;5034283;28;19905;-57
2021/04/24 00:43:07;;;;;;;;;;;7.90;99.90;;;;;;5034697;28;19950;-56
2021/04/24 00:45:33;;;;;;;;;;;8.10;99.90;;;;;;5034120;28;19905;-53
2021/04/24 00:47:59;;;;;;;;;;;8.60;99.90;;;;;;5034773;28;19999;-58
2021/04/24 00:50:27;;;;;;;;;;;8.90;99.90;;;;;;5016347;28;20337;-55
2021/04/24 00:52:53;;;;;;;;;;;;;;;;;;5015703;28;20004;-55
2021/04/24 00:55:19;;;;;;;;;;;9.40;99.90;;;;;;5034570;28;20375;-56
2021/04/24 00:57:45;;;;;;;;;;;9.60;99.90;;;;;;5034417;28;20402;-56
2021/04/24 01:00:11;;;;;;;;;;;9.80;99.90;;;;;;5034111;28;19993;-54
2021/04/24 01:02:37;;;;;;;;;;;9.90;99.90;;;;;;4999348;28;19905;-54
2021/04/24 01:05:05;;;;;;;;;;;10.00;99.90;;;;;;5034287;28;19909;-53
2021/04/24 01:07:30;;;;;;;;;;;10.10;99.90;;;;;;4999125;28;20391;-53
2021/04/24 01:09:56;;;;;;;;;;;10.00;99.90;;;;;;5034069;28;20008;-54
2021/04/24 01:12:21;;;;;;;;;;;10.10;99.90;;;;;;5033910;28;19905;-53
2021/04/24 01:14:47;;;;;;;;;;;10.00;99.90;;;;;;5033914;28;19916;-54
2021/04/24 01:17:13;;;;;;;;;;;10.10;99.90;;;;;;5034372;28;19912;-53
2021/04/24 01:19:38;;;;;;;;;;;10.10;99.90;;;;;;5034319;28;20305;-55
2021/04/24 01:22:06;;;;;;;;;;;10.20;99.90;;;;;;5033845;28;20348;-56
2021/04/24 01:24:32;;;;;;;;;;;10.10;99.90;;;;;;5033748;28;19905;-54
2021/04/24 01:26:58;;;;;;;;;;;10.10;99.90;;;;;;5034077;28;19912;-55
2021/04/24 01:29:24;;;;;;;;;;;10.00;99.90;;;;;;5034007;28;19905;-54
2021/04/24 01:31:50;;;;;;;;;;;9.90;99.90;;;;;;5036812;28;19913;-54
2021/04/24 01:34:15;;;;;;;;;;;9.90;99.90;;;;;;5037985;28;20062;-56
2021/04/24 01:36:41;;;;;;;;;;;9.80;99.90;;;;;;5037391;28;19905;-53
2021/04/24 01:39:06;;;;;;;;;;;9.80;99.90;;;;;;5037606;28;19915;-56
2021/04/24 01:41:33;;;;;;;;;;;9.80;99.90;;;;;;5002813;28;20337;-55
2021/04/24 01:43:58;;;;;;;;;;;9.80;99.90;;;;;;5019101;28;19905;-53
2021/04/24 01:46:24;;;;;;;;;;;9.70;99.90;;;;;;5037384;28;20023;-54
2021/04/24 01:48:50;;;;;;;;;;;9.80;99.90;;;;;;4986228;28;19971;-54
2021/04/24 01:51:16;;;;;;;;;;;9.90;99.90;;;;;;4995696;28;19918;-53
2021/04/24 01:53:42;;;;;;;;;;;9.90;99.90;;;;;;4995877;28;19905;-55
2021/04/24 01:56:09;;;;;;;;;;;9.80;99.90;;;;;;4995604;28;19906;-54
2021/04/24 01:58:34;;;;;;;;;;;9.70;99.90;;;;;;4995758;28;19969;-57
2021/04/24 02:01:04;;;;;;;;;;;9.60;99.90;;;;;;4978880;28;19909;-54
2021/04/24 02:03:29;;;;;;;;;;;9.60;99.90;;;;;;4979320;28;20388;-55
2021/04/24 02:05:56;;;;;;;;;;;9.60;99.90;;;;;;4978853;28;19905;-54
2021/04/24 02:08:23;;;;;;;;;;;9.60;99.90;;;;;;4995597;28;19906;-55
2021/04/24 02:10:50;;;;;;;;;;;9.50;99.90;;;;;;4995438;28;19914;-54
2021/04/24 02:13:17;;;;;;;;;;;9.40;99.90;;;;;;4995422;28;20337;-54
2021/04/24 02:15:44;;;;;;;;;;;9.40;99.90;;;;;;4995278;28;19905;-53
2021/04/24 02:18:10;;;;;;;;;;;9.40;99.90;;;;;;4995286;28;19912;-56
2021/04/24 02:20:36;;;;;;;;;;;9.30;99.90;;;;;;4978964;28;20307;-54
2021/04/24 02:23:03;;;;;;;;;;;9.30;99.90;;;;;;5029335;28;20332;-53
2021/04/24 02:25:28;;;;;;;;;;;9.30;99.90;;;;;;5036622;28;20006;-53
2021/04/24 02:27:55;;;;;;;;;;;9.30;99.90;;;;;;5001977;28;20320;-54
2021/04/24 02:30:21;;;;;;;;;;;9.20;99.90;;;;;;5036718;28;19976;-53
2021/04/24 02:32:47;;;;;;;;;;;9.10;99.90;;;;;;5037123;28;19964;-52
2021/04/24 02:35:17;;;;;;;;;;;9.10;99.90;;;;;;5036496;28;20337;-55
2021/04/24 02:37:43;;;;;;;;;;;9.10;99.90;;;;;;5036455;28;19917;-56
2021/04/24 02:40:11;;;;;;;;;;;9.10;99.90;;;;;;5036555;28;19912;-52
2021/04/24 02:42:37;;;;;;;;;;;9.10;99.90;;;;;;5000050;28;19952;-56
2021/04/24 02:45:05;;;;;;;;;;;9.00;99.90;;;;;;4984968;28;19998;-53
2021/04/24 02:47:32;;;;;;;;;;;9.10;99.90;;;;;;5001812;28;19909;-55
2021/04/24 02:49:57;;;;;;;;;;;9.00;99.90;;;;;;5036149;28;19951;-52
2021/04/24 02:52:23;;;;;;;;;;;9.10;99.90;;;;;;5038504;28;19909;-53
2021/04/24 02:54:49;;;;;;;;;;;9.10;99.90;;;;;;5044608;28;19905;-55
2021/04/24 02:57:15;;;;;;;;;;;9.20;99.90;;;;;;5047128;28;19905;-56
2021/04/24 02:59:40;;;;;;;;;;;9.20;99.90;;;;;;5001816;28;19905;-55
2021/04/24 03:02:06;;;;;;;;;;;9.20;99.90;;;;;;5027606;28;19959;-53
2021/04/24 03:04:31;;;;;;;;;;;9.20;99.90;;;;;;5025454;28;19959;-54
2021/04/24 03:06:57;;;;;;;;;;;9.20;99.90;;;;;;5027091;28;19959;-54
2021/04/24 03:09:23;;;;;;;;;;;9.20;99.90;;;;;;5034001;28;19928;-55
2021/04/24 03:11:48;;;;;;;;;;;9.20;99.90;;;;;;5047157;28;19920;-56
2021/04/24 03:14:14;;;;;;;;;;;9.20;99.90;;;;;;5044351;28;19960;-56
2021/04/24 03:16:40;;;;;;;;;;;9.20;99.90;;;;;;5045111;28;19911;-54
2021/04/24 03:19:06;;;;;;;;;;;9.10;99.90;;;;;;4996912;28;19905;-56
2021/04/24 03:21:32;;;;;;;;;;;9.10;99.90;;;;;;5035546;28;20261;-54
2021/04/24 03:23:58;;;;;;;;;;;9.10;99.90;;;;;;5035513;28;19959;-56
2021/04/24 03:26:24;;;;;;;;;;;9.10;99.90;;;;;;5045822;28;19916;-55
2021/04/24 03:28:50;;;;;;;;;;;9.10;99.90;;;;;;5040348;28;19984;-56
2021/04/24 03:31:16;;;;;;;;;;;8.90;99.90;;;;;;5035549;28;20353;-55
2021/04/24 03:33:42;;;;;;;;;;;8.50;99.90;;;;;;5035357;28;19912;-54
2021/04/24 03:36:08;;;;;;;;;;;8.20;99.90;;;;;;5035167;28;19911;-56
2021/04/24 03:38:34;;;;;;;;;;;;;;;;;;5035286;28;19920;-55
2021/04/24 03:40:59;;;;;;;;;;;;;;;;;;5035267;28;20332;-55
2021/04/24 03:43:25;;;;;;;;;;;7.00;99.90;;;;;;5034963;28;19912;-55
2021/04/24 03:45:51;;;;;;;;;;;6.60;99.90;;;;;;5035309;28;19905;-57
2021/04/24 03:48:17;;;;;;;;;;;;;;;;;;5035609;28;20244;-54
2021/04/24 03:50:42;;;;;;;;;;;6.40;99.90;;;;;;5035334;28;19983;-56
2021/04/24 03:53:08;;;;;;;;;;;;;;;;;;5034644;28;19913;-54
2021/04/24 03:55:34;;;;;;;;;;;6.40;99.90;;;;;;5035067;28;19905;-56
2021/04/24 03:58:00;;;;;;;;;;;6.40;99.90;;;;;;5000020;28;19905;-57
2021/04/24 04:00:28;;;;;;;;;;;6.30;99.90;;;;;;5034834;28;19916;-53
2021/04/24 04:02:56;;;;;;;;;;;6.20;99.90;;;;;;5034883;28;19911;-56
2021/04/24 04:05:23;;;;;;;;;;;6.20;99.90;;;;;;5034741;28;20012;-55
2021/04/24 04:07:48;;;;;;;;;;;6.30;99.90;;;;;;5034919;28;19905;-54
2021/04/24 04:10:15;;;;;;;;;;;6.60;99.90;;;;;;5034808;28;19962;-56
2021/04/24 04:12:41;;;;;;;;;;;6.30;99.90;;;;;;5034812;28;19905;-54
2021/04/24 04:15:08;;;;;;;;;;;6.30;99.90;;;;;;5034857;28;19912;-53
2021/04/24 04:17:34;;;;;;;;;;;;;;;;;;5034476;28;19905;-56
2021/04/24 04:20:00;;;;;;;;;;;;;;;;;;5034703;28;19901;-55
2021/04/24 04:22:26;;;;;;;;;;;;;;;;;;5034745;28;19908;-54
2021/04/24 04:24:51;;;;;;;;;;;;;;;;;;5034492;28;19905;-53
2021/04/24 04:27:17;;;;;;;;;;;7.40;99.90;;;;;;5034493;28;19909;-54
2021/04/24 04:29:43;;;;;;;;;;;7.50;99.90;;;;;;5034366;28;19928;-55
2021/04/24 04:32:09;;;;;;;;;;;;;;;;;;4999642;28;19924;-57
2021/04/24 04:34:35;;;;;;;;;;;8.00;99.90;;;;;;5034494;28;19908;-53
2021/04/24 04:37:00;;;;;;;;;;;;;;;;;;5034385;28;19925;-54
2021/04/24 04:39:26;;;;;;;;;;;8.40;99.90;;;;;;5034206;28;20021;-53
2021/04/24 04:41:53;;;;;;;;;;;;;;;;;;5015655;28;19968;-56
2021/04/24 04:44:19;;;;;;;;;;;8.60;99.90;;;;;;5034795;28;19948;-55
2021/04/24 04:46:44;;;;;;;;;;;8.50;99.90;;;;;;5034612;28;19956;-54
2021/04/24 04:49:10;;;;;;;;;;;8.30;99.90;;;;;;5033991;28;19905;-53
2021/04/24 04:51:35;;;;;;;;;;;8.50;99.90;;;;;;5034170;28;20474;-53
2021/04/24 04:54:01;;;;;;;;;;;;;;;;;;5015819;28;19945;-54
2021/04/24 04:56:27;;;;;;;;;;;8.70;99.90;;;;;;5034044;28;19909;-56
2021/04/24 04:58:52;;;;;;;;;;;8.90;99.90;;;;;;5033822;28;19905;-54
2021/04/24 05:01:20;;;;;;;;;;;8.90;99.90;;;;;;5033887;28;19905;-57
2021/04/24 05:03:45;;;;;;;;;;;8.90;99.90;;;;;;5015967;28;19927;-56
2021/04/24 05:06:11;;;;;;;;;;;8.90;99.90;;;;;;5033536;28;20510;-53
2021/04/24 05:08:37;;;;;;;;;;;9.00;99.90;;;;;;4992257;28;19969;-55
2021/04/24 05:11:04;;;;;;;;;;;9.00;99.90;;;;;;4992372;28;19914;-57
2021/04/24 05:13:30;;;;;;;;;;;9.00;99.90;;;;;;4975828;28;20376;-52
2021/04/24 05:15:56;;;;;;;;;;;9.10;99.90;;;;;;4992315;28;19910;-53
2021/04/24 05:18:22;;;;;;;;;;;9.20;99.90;;;;;;4992378;28;20268;-55
2021/04/24 05:20:47;;;;;;;;;;;9.30;99.90;;;;;;4992398;28;19906;-56
2021/04/24 05:23:13;;;;;;;;;;;;;;;;;;4991915;28;19906;-55
2021/04/24 05:25:39;;;;;;;;;;;9.30;99.90;;;;;;4992180;28;19945;-55
2021/04/24 05:28:05;;;;;;;;;;;9.30;99.90;;;;;;4967411;28;19932;-53
2021/04/24 05:30:31;;;;;;;;;;;9.50;99.90;;;;;;5001168;28;20415;-54
2021/04/24 05:32:58;;;;;;;;;;;9.70;99.90;;;;;;5001687;28;19961;-55
2021/04/24 05:35:24;;;;;;;;;;;9.70;99.90;;;;;;4999736;28;20328;-53
2021/04/24 05:37:49;;;;;;;;;;;9.60;99.90;;;;;;5001200;28;19921;-55
2021/04/24 05:40:15;;;;;;;;;;;9.70;99.90;;;;;;5018363;28;19909;-54
2021/04/24 05:42:41;;;;;;;;;;;9.70;99.90;;;;;;5024704;28;20359;-55
2021/04/24 05:45:11;;;;;;;;;;;9.70;99.90;;;;;;5033872;28;19909;-57
2021/04/24 05:47:39;;;;;;;;;;;10.10;99.90;;;;;;5015724;28;19915;-54
2021/04/24 05:50:06;;;;;;;;;;;10.10;99.90;;;;;;5033812;28;20375;-54
2021/04/24 05:52:33;;;;;;;;;;;10.20;99.90;;;;;;4998800;28;19909;-56
2021/04/24 05:54:59;;;;;;;;;;;;;;;;;;5033448;28;19912;-56
2021/04/24 05:57:24;;;;;;;;;;;10.50;99.90;;;;;;5033243;28;19905;-55
2021/04/24 05:59:50;;;;;;;;;;;10.40;99.90;;;;;;5033639;28;20319;-56
2021/04/24 06:02:16;;;;;;;;;;;10.40;99.90;;;;;;5033696;28;19909;-56
2021/04/24 06:04:41;;;;;;;;;;;10.40;99.90;;;;;;5032112;28;19905;-54
2021/04/24 06:07:07;;;;;;;;;;;10.70;99.90;;;;;;5033560;28;19909;-53
2021/04/24 06:09:34;;;;;;;;;;;10.90;99.90;;;;;;5031508;28;19906;-54
2021/04/24 06:11:59;;;;;;;;;;;11.20;99.90;;;;;;5033379;28;19975;-54
2021/04/24 06:14:25;;;;;;;;;;;11.30;99.90;;;;;;5031556;28;20345;-54
2021/04/24 06:16:51;;;;;;;;;;;11.40;99.90;;;;;;5034788;28;19949;-54
2021/04/24 06:19:16;;;;;;;;;;;11.60;99.90;;;;;;5037059;28;19912;-54
2021/04/24 06:21:42;;;;;;;;;;;11.70;99.90;;;;;;5031078;28;19909;-56
2021/04/24 06:24:08;;;;;;;;;;;11.70;99.90;;;;;;5030778;28;19910;-56
2021/04/24 06:26:33;;;;;;;;;;;11.80;99.90;;;;;;5036821;28;19905;-54
2021/04/24 06:28:59;;;;;;;;;;;11.90;99.90;;;;;;5037045;28;19909;-53
2021/04/24 06:31:24;;;;;;;;;;;11.90;99.90;;;;;;5036795;28;19913;-56
2021/04/24 06:33:50;;;;;;;;;;;;;;;;;;5036530;28;19909;-57
2021/04/24 06:36:17;;;;;;;;;;;;;;;;;;5036862;28;19935;-54
2021/04/24 06:38:43;;;;;;;;;;;12.50;99.90;;;;;;5054977;28;19924;-54
2021/04/24 06:41:09;;;;;;;;;;;12.70;99.90;;;;;;5056323;28;19987;-55
2021/04/24 06:43:35;;;;;;;;;;;12.90;99.90;;;;;;5056253;28;19940;-56
2021/04/24 06:46:00;;;;;;;;;;;13.10;99.90;;;;;;5056506;28;19908;-56
2021/04/24 06:48:26;;;;;;;;;;;13.20;99.90;;;;;;5056321;28;19952;-55
2021/04/24 06:50:52;;;;;;;;;;;13.30;99.90;;;;;;5056114;28;19919;-49
2021/04/24 06:53:18;;;;;;;;;;;13.30;99.90;;;;;;5056264;28;19905;-54
2021/04/24 06:55:43;;;;;;;;;;;13.60;99.90;;;;;;5056003;28;19909;-52
2021/04/24 06:58:09;;;;;;;;;;;13.70;99.90;;;;;;5056192;28;19905;-55
2021/04/24 07:00:35;;;;;;;;;;;13.80;99.90;;;;;;5056097;28;19905;-55
2021/04/24 07:03:01;;;;;;;;;;;13.70;99.90;;;;;;5004344;28;20355;-55
2021/04/24 07:05:26;;;;;;;;;;;13.70;99.90;;;;;;5055854;28;19913;-54
2021/04/24 07:07:52;;;;;;;;;;;13.50;99.90;;;;;;5020545;28;19912;-53
2021/04/24 07:10:18;;;;;;;;;;;13.60;99.90;;;;;;5055915;28;19909;-53
2021/04/24 07:12:46;;;;;;;;;;;13.60;99.90;;;;;;5055984;28;20421;-53
2021/04/24 07:15:12;;;;;;;;;;;13.70;99.90;;;;;;5055824;28;19920;-53
2021/04/24 07:17:38;;;;;;;;;;;13.80;99.90;;;;;;5055589;28;20319;-53
2021/04/24 07:20:04;;;;;;;;;;;14.00;99.90;;;;;;5055687;28;20066;-54
2021/04/24 07:22:30;;;;;;;;;;;;;;;;;;5055408;28;19905;-54
2021/04/24 07:24:55;;;;;;;;;;;14.10;99.90;;;;;;5048977;28;20055;-54
2021/04/24 07:27:21;;;;;;;;;;;14.10;99.90;;;;;;5035459;28;20366;-54
2021/04/24 07:29:47;;;;;;;;;;;14.10;99.90;;;;;;5034787;28;20308;-55
2021/04/24 07:32:12;;;;;;;;;;;14.20;99.90;;;;;;5043860;28;19932;-53
2021/04/24 07:34:38;;;;;;;;;;;14.30;99.90;;;;;;5041292;28;19909;-52
2021/04/24 07:37:04;;;;;;;;;;;14.30;99.90;;;;;;5042946;28;19964;-54
2021/04/24 07:39:30;;;;;;;;;;;;;;;;;;5046233;28;19919;-53
2021/04/24 07:41:56;;;;;;;;;;;14.90;99.90;;;;;;5054953;28;19905;-52
2021/04/24 07:44:23;;;;;;;;;;;15.00;99.90;;;;;;5051801;28;19915;-53
2021/04/24 07:46:49;;;;;;;;;;;15.00;99.90;;;;;;5054817;28;19913;-53
2021/04/24 07:49:15;;;;;;;;;;;;;;;;;;5054721;28;19915;-54
2021/04/24 07:51:41;;;;;;;;;;;15.30;99.90;;;;;;5050321;28;19924;-54
2021/04/24 07:54:06;;;;;;;;;;;15.50;99.90;;;;;;5051648;28;19908;-54
2021/04/24 07:56:32;;;;;;;;;;;15.50;98.90;;;;;;5019745;28;20408;-53
2021/04/24 07:58:57;;;;;;;;;;;15.80;99.30;;;;;;5003163;28;19956;-53
2021/04/24 08:01:23;;;;;;;;;;;;;;;;;;5003150;28;20003;-53
2021/04/24 08:03:49;;;;;;;;;;;;;;;;;;5054491;28;19997;-55
2021/04/24 08:06:15;;;;;;;;;;;;;;;;;;5054590;28;19916;-54
2021/04/24 08:08:41;;;;;;;;;;;;;;;;;;5037270;28;19912;-53
2021/04/24 08:11:07;;;;;;;;;;;16.90;94.70;;;;;;5034295;28;20273;-54
2021/04/24 08:13:33;;;;;;;;;;;;;;;;;;5034721;28;19912;-50
2021/04/24 08:15:59;;;;;;;;;;;17.30;89.90;;;;;;5034556;28;19905;-51
2021/04/24 08:18:24;;;;;;;;;;;17.20;90.10;;;;;;5034553;28;19905;-51
2021/04/24 08:20:50;;;;;;;;;;;17.50;88.80;;;;;;5015956;28;20394;-53
2021/04/24 08:23:16;;;;;;;;;;;17.60;87.40;;;;;;5034413;28;20392;-52
2021/04/24 08:25:41;;;;;;;;;;;;;;;;;;5034237;28;19952;-51
2021/04/24 08:28:07;;;;;;;;;;;18.00;83.30;;;;;;5034169;28;19916;-51
2021/04/24 08:30:33;;;;;;;;;;;18.10;82.60;;;;;;5034401;28;19955;-50
2021/04/24 08:32:58;;;;;;;;;;;18.10;83.40;;;;;;5034123;28;20375;-51
2021/04/24 08:35:24;;;;;;;;;;;18.20;81.40;;;;;;5034124;28;19943;-52
2021/04/24 08:37:50;;;;;;;;;;;;;;;;;;5015522;28;19960;-51
2021/04/24 08:40:16;;;;;;;;;;;;;;;;;;5033941;28;19948;-51
2021/04/24 08:42:42;;;;;;;;;;;19.00;99.90;;;;;;5034144;28;20281;-52
2021/04/24 08:45:15;;;;;;;;;;;19.20;74.30;;;;;;5033706;28;19912;-53
2021/04/24 08:47:48;;;;;;;;;;;19.50;75.70;;;;;;5016394;28;20361;-52
2021/04/24 08:50:15;;;;;;;;;;;19.40;70.10;;;;;;5033994;28;21205;-51
2021/04/24 08:52:41;;;;;;;;;;;19.30;72.40;;;;;;5034142;28;19909;-53
2021/04/24 08:55:07;;;;;;;;;;;19.70;73.30;;;;;;5033295;28;20016;-50
2021/04/24 08:57:33;;;;;;;;;;;;;;;;;;5013745;28;19908;-51
2021/04/24 08:59:59;;;;;;;;;;;;;;;;;;5032727;28;19999;-52
2021/04/24 09:02:25;;;;;;;;;;;;;;;;;;5032900;28;20119;-52
2021/04/24 09:04:51;;;;;;;;;;;20.60;70.30;;;;;;5032719;28;19905;-50
2021/04/24 09:07:16;;;;;;;;;;;20.80;70.30;;;;;;5015070;28;19917;-50
2021/04/24 09:09:42;;;;;;;;;;;20.80;67.20;;;;;;5032477;28;19909;-52
2021/04/24 09:12:08;;;;;;;;;;;20.30;65.40;;;;;;5032386;28;19927;-52
2021/04/24 09:14:35;;;;;;;;;;;20.60;66.30;;;;;;5032552;28;20332;-52
2021/04/24 09:17:00;;;;;;;;;;;20.00;67.50;;;;;;5032638;28;20489;-51
2021/04/24 09:19:36;;;;;;;;;;;19.80;66.90;;;;;;5030485;28;19989;-51
2021/04/24 09:22:22;;;;;;;;;;;19.90;67.80;;;;;;5032501;28;19912;-53
2021/04/24 09:24:49;;;;;;;;;;;19.90;69.30;;;;;;5032326;28;20031;-50
2021/04/24 09:27:15;;;;;;;;;;;20.20;67.30;;;;;;5013849;28;19912;-50
2021/04/24 09:29:41;;;;;;;;;;;20.20;67.40;;;;;;5032414;28;20532;-50
2021/04/24 09:32:16;;;;;;;;;;;20.20;67.60;;;;;;4997277;28;19924;-51
2021/04/24 09:34:45;;;;;;;;;;;20.20;67.10;;;;;;4993493;28;19905;-50
2021/04/24 09:37:20;;;;;;;;;;;20.50;65.60;;;;;;5010044;28;19913;-52
2021/04/24 09:39:49;;;;;;;;;;;20.80;65.70;;;;;;5010225;28;19906;-52
2021/04/24 09:42:33;;;;;;;;;;;20.80;65.30;;;;;;4954706;28;19906;-50
2021/04/24 09:44:59;;;;;;;;;;;21.10;64.70;;;;;;4971206;28;19913;-53
2021/04/24 09:47:45;;;;;;;;;;;21.30;63.40;;;;;;4971098;28;19907;-51
2021/04/24 09:50:11;;;;;;;;;;;;;;;;;;4970509;28;19921;-53
2021/04/24 09:52:36;;;;;;;;;;;21.70;64.00;;;;;;4973762;28;19906;-51
2021/04/24 09:55:03;;;;;;;;;;;21.40;64.00;;;;;;4958601;28;19913;-53
2021/04/24 09:57:31;;;;;;;;;;;21.80;63.20;;;;;;4958457;28;19906;-53
2021/04/24 09:59:58;;;;;;;;;;;21.80;63.40;;;;;;4974660;28;20678;-53
2021/04/24 10:02:33;;;;;;;;;;;21.80;63.40;;;;;;4958019;28;19906;-54
2021/04/24 10:05:11;;;;;;;;;;;21.60;64.70;;;;;;4978615;28;19968;-53
2021/04/24 10:07:41;;;;;;;;;;;21.80;64.80;;;;;;5026917;28;19912;-53
2021/04/24 10:10:08;;;;;;;;;;;22.20;62.10;;;;;;5032708;28;19999;-52
2021/04/24 10:12:34;;;;;;;;;;;22.30;64.20;;;;;;5035667;28;20361;-53
2021/04/24 10:15:00;;;;;;;;;;;22.70;63.80;;;;;;5035570;28;19952;-53
2021/04/24 10:17:26;;;;;;;;;;;22.70;61.70;;;;;;4984236;28;19921;-52
2021/04/24 10:19:52;;;;;;;;;;;22.50;62.40;;;;;;5035655;28;19935;-51
2021/04/24 10:22:20;;;;;;;;;;;21.70;62.20;;;;;;5035596;28;19913;-52
2021/04/24 10:24:46;;;;;;;;;;;21.60;61.50;;;;;;5035488;28;19905;-52
2021/04/24 10:27:12;;;;;;;;;;;21.70;62.20;;;;;;5016682;28;19916;-51
2021/04/24 10:29:39;;;;;;;;;;;21.90;62.20;;;;;;5035338;28;19912;-53
2021/04/24 10:32:05;;;;;;;;;;;21.50;63.30;;;;;;5035401;28;19921;-51
2021/04/24 10:34:31;;;;;;;;;;;21.20;62.20;;;;;;5035431;28;19974;-51
2021/04/24 10:36:56;;;;;;;;;;;20.70;62.80;;;;;;4980654;28;20364;-53
2021/04/24 10:39:22;;;;;;;;;;;21.10;61.70;;;;;;5015403;28;19909;-51
2021/04/24 10:41:54;;;;;;;;;;;21.60;60.40;;;;;;4980448;28;19953;-52
2021/04/24 10:44:20;;;;;;;;;;;22.10;59.30;;;;;;5015431;28;20312;-54
2021/04/24 10:46:47;;;;;;;;;;;22.30;60.10;;;;;;5015384;28;20009;-53
2021/04/24 10:49:20;;;;;;;;;;;22.40;60.90;;;;;;4973865;28;19913;-54
2021/04/24 10:51:52;;;;;;;;;;;22.60;61.80;;;;;;4973804;28;19920;-53
2021/04/24 10:54:17;;;;;;;;;;;21.40;60.50;;;;;;4973814;28;20401;-54
2021/04/24 10:56:43;;;;;;;;;;;21.60;62.10;;;;;;4973707;28;19906;-52
2021/04/24 10:59:28;;;;;;;;;;;21.10;61.20;;;;;;4974257;28;19906;-53
2021/04/24 11:02:03;;;;;;;;;;;21.20;62.90;;;;;;4973871;28;20033;-54
2021/04/24 11:04:42;;;;;;;;;;;21.70;59.90;;;;;;4972579;28;19912;-55
2021/04/24 11:07:27;;;;;;;;;;;22.30;59.20;;;;;;4973602;28;19914;-54
2021/04/24 11:10:11;;;;;;;;;;;22.40;58.90;;;;;;4973750;28;19997;-53
2021/04/24 11:12:41;;;;;;;;;;;23.00;60.30;;;;;;4973512;28;19950;-55
2021/04/24 11:15:07;;;;;;;;;;;22.90;60.20;;;;;;4973307;28;20000;-54
2021/04/24 11:17:33;;;;;;;;;;;22.70;58.80;;;;;;4957092;28;20445;-52
2021/04/24 11:19:59;;;;;;;;;;;22.80;59.80;;;;;;4989930;28;19921;-54
2021/04/24 11:22:31;;;;;;;;;;;22.50;59.70;;;;;;5014731;28;19906;-52
2021/04/24 11:25:15;;;;;;;;;;;23.30;61.10;;;;;;5014644;28;19952;-53
2021/04/24 11:27:59;;;;;;;;;;;22.90;58.50;;;;;;4996035;28;19905;-53
2021/04/24 11:30:45;;;;;;;;;;;23.00;60.50;;;;;;5014541;28;20568;-55
2021/04/24 11:33:29;;;;;;;;;;;22.30;59.70;;;;;;5000778;28;19932;-54
2021/04/24 11:36:12;;;;;;;;;;;22.70;58.70;;;;;;5014394;28;19905;-54
2021/04/24 11:38:56;;;;;;;;;;;22.40;56.70;;;;;;5031647;28;19924;-53
2021/04/24 11:41:29;;;;;;;;;;;22.20;59.00;;;;;;5034205;28;19912;-53
2021/04/24 11:43:55;;;;;;;;;;;22.50;57.70;;;;;;5034201;28;19928;-53
2021/04/24 11:46:33;;;;;;;;;;;22.80;58.80;;;;;;5031848;28;20277;-53
2021/04/24 11:49:00;;;;;;;;;;;;;;;;;;5034111;28;19912;-54
2021/04/24 11:51:29;;;;;;;;;;;23.10;56.80;;;;;;5033761;28;19913;-54
2021/04/24 11:53:57;;;;;;;;;;;23.60;57.20;;;;;;5033940;28;19905;-52
2021/04/24 11:56:23;;;;;;;;;;;22.80;57.80;;;;;;5033829;28;19905;-54
2021/04/24 11:58:49;;;;;;;;;;;22.50;60.20;;;;;;5033635;28;19924;-53
2021/04/24 12:01:22;;;;;;;;;;;22.30;59.50;;;;;;4998829;28;19905;-53
2021/04/24 12:03:47;;;;;;;;;;;22.40;57.80;;;;;;5033689;28;19918;-52
2021/04/24 12:06:13;;;;;;;;;;;22.40;58.40;;;;;;5033745;28;19909;-55
2021/04/24 12:08:39;;;;;;;;;;;22.80;58.70;;;;;;5033533;28;19905;-53
2021/04/24 12:11:08;;;;;;;;;;;23.10;58.90;;;;;;5014859;28;19917;-54
2021/04/24 12:13:34;;;;;;;;;;;23.00;58.30;;;;;;5033337;28;19996;-53
2021/04/24 12:16:00;;;;;;;;;;;22.70;58.20;;;;;;5033438;28;19959;-53
2021/04/24 12:18:30;;;;;;;;;;;23.20;57.70;;;;;;5033437;28;20009;-54
2021/04/24 12:20:56;;;;;;;;;;;23.00;58.80;;;;;;5033448;28;19912;-54
2021/04/24 12:23:22;;;;;;;;;;;22.60;55.30;;;;;;5033392;28;19912;-53
2021/04/24 12:25:48;;;;;;;;;;;22.70;57.10;;;;;;5033122;28;19905;-54
2021/04/24 12:28:14;;;;;;;;;;;;;;;;;;5033223;28;19951;-53
2021/04/24 12:30:43;;;;;;;;;;;23.50;56.20;;;;;;5033449;28;19994;-54
2021/04/24 12:33:09;;;;;;;;;;;23.70;56.60;;;;;;5033201;28;19996;-52
2021/04/24 12:35:36;;;;;;;;;;;23.10;57.90;;;;;;5032999;28;20483;-53
2021/04/24 12:38:03;;;;;;;;;;;22.60;55.90;;;;;;5032625;28;19921;-54
2021/04/24 12:40:29;;;;;;;;;;;21.80;55.00;;;;;;5030786;28;19905;-54
2021/04/24 12:43:27;;;;;;;;;;;21.40;56.20;;;;;;5032856;28;19909;-53
2021/04/24 12:45:53;;;;;;;;;;;21.30;56.10;;;;;;4952587;29;19906;-52
2021/04/24 12:48:20;;;;;;;;;;;21.80;55.70;;;;;;4952574;29;20376;-53
2021/04/24 12:50:47;;;;;;;;;;;22.00;55.60;;;;;;4952153;29;19965;-55
2021/04/24 12:53:27;;;;;;;;;;;22.40;56.40;;;;;;4952577;29;19910;-54
2021/04/24 12:56:00;;;;;;;;;;;22.50;55.50;;;;;;4952393;29;19906;-53
2021/04/24 12:58:29;;;;;;;;;;;22.50;56.80;;;;;;4951881;29;20361;-54
2021/04/24 13:00:55;;;;;;;;;;;22.30;57.80;;;;;;4952433;29;19910;-53
2021/04/24 13:03:20;;;;;;;;;;;22.10;57.60;;;;;;4952353;29;20444;-53
2021/04/24 13:05:46;;;;;;;;;;;22.60;58.20;;;;;;4935986;29;19961;-52
2021/04/24 13:08:12;;;;;;;;;;;22.60;57.20;;;;;;4951690;29;19906;-53
2021/04/24 13:10:38;;;;;;;;;;;22.30;58.00;;;;;;4952215;29;19917;-56
2021/04/24 13:13:04;;;;;;;;;;;22.00;56.30;;;;;;4952284;29;19956;-54
2021/04/24 13:15:36;;;;;;;;;;;22.40;55.30;;;;;;4952279;29;19950;-54
2021/04/24 13:18:16;;;;;;;;;;;23.00;55.20;;;;;;4951985;29;20081;-54
2021/04/24 13:20:42;;;;;;;;;;;23.30;57.30;;;;;;4966992;28;19905;-55
2021/04/24 13:23:14;;;;;;;;;;;23.40;56.80;;;;;;5013993;28;19912;-54
2021/04/24 13:25:40;;;;;;;;;;;23.20;54.40;;;;;;5032093;28;19927;-54
2021/04/24 13:28:06;;;;;;;;;;;23.40;54.80;;;;;;5033973;28;20353;-55
2021/04/24 13:30:44;;;;;;;;;;;23.70;54.40;;;;;;5036004;28;19913;-54
2021/04/24 13:33:12;;;;;;;;;;;23.60;54.50;;;;;;4994500;28;19996;-53
2021/04/24 13:35:40;;;;;;;;;;;23.60;54.00;;;;;;4994436;28;19965;-55
2021/04/24 13:38:06;;;;;;;;;;;23.50;54.60;;;;;;4993990;28;19918;-53
2021/04/24 13:40:32;;;;;;;;;;;23.20;52.90;;;;;;4978292;28;19937;-55
2021/04/24 13:42:58;;;;;;;;;;;23.30;53.20;;;;;;4994408;28;20396;-55
2021/04/24 13:45:26;;;;;;;;;;;23.20;53.20;;;;;;4994641;28;19906;-55
2021/04/24 13:47:51;;;;;;;;;;;23.00;53.20;;;;;;4994405;28;19906;-52
2021/04/24 13:50:18;;;;;;;;;;;23.20;54.40;;;;;;4994377;28;20286;-54
2021/04/24 13:52:44;;;;;;;;;;;23.10;54.20;;;;;;4994351;28;19909;-52
2021/04/24 13:55:10;;;;;;;;;;;22.70;52.30;;;;;;4994367;28;20419;-54
2021/04/24 13:57:36;;;;;;;;;;;23.10;54.70;;;;;;4961669;28;19909;-53
2021/04/24 14:00:03;;;;;;;;;;;23.20;52.80;;;;;;4977688;28;20045;-54
2021/04/24 14:02:28;;;;;;;;;;;23.30;51.80;;;;;;4994251;28;20277;-54
2021/04/24 14:04:54;;;;;;;;;;;23.20;53.90;;;;;;5027945;28;19911;-55
2021/04/24 14:07:19;;;;;;;;;;;23.30;52.60;;;;;;5037222;28;20360;-54
2021/04/24 14:09:45;;;;;;;;;;;23.70;54.00;;;;;;4985955;28;19943;-55
2021/04/24 14:12:11;;;;;;;;;;;23.60;54.00;;;;;;5018229;28;19913;-54
2021/04/24 14:14:40;;;;;;;;;;;23.80;54.20;;;;;;5018408;28;19913;-53
2021/04/24 14:17:06;;;;;;;;;;;23.50;53.40;;;;;;5018545;28;19959;-54
2021/04/24 14:19:31;;;;;;;;;;;23.40;54.10;;;;;;5037025;28;19905;-54
2021/04/24 14:21:57;;;;;;;;;;;23.00;54.00;;;;;;5036789;28;19909;-55
2021/04/24 14:24:23;;;;;;;;;;;22.60;54.60;;;;;;5036565;28;19912;-54
2021/04/24 14:26:48;;;;;;;;;;;22.60;55.00;;;;;;5036901;28;19927;-55
2021/04/24 14:29:14;;;;;;;;;;;22.90;53.80;;;;;;5036430;28;19909;-50
2021/04/24 14:31:40;;;;;;;;;;;22.80;55.10;;;;;;5036218;28;19913;-53
2021/04/24 14:34:06;;;;;;;;;;;22.30;53.80;;;;;;5036242;28;20316;-53